Hoffman, North Carolina
Current Conditions -  °F | °C
As of 2:56 AM on Saturday 20 Dec 2014 (Local Time) from KHFF Reporting Station
Broken Clouds Broken Clouds  
Wind Chill: 38°   Ceiling: 12000
Heat Index: 38°   Visibility: 10mi
Dew Point: 34°   Wind: 3mph
Humidity: 86%   Direction: 70°ENE
Pressure: 30.21"   Gusts: NA
Location:  35.03°N, 79.55°W
Report Text: KHFF 200756Z AUTO 07003KT 10SM BKN120 03/01 A3021 RMK AO2 SLP234 T00340013
Loading
Personal Weather Stations






























Interactive Weather Map New forecast layout! Learn more

10-Day Weather Forecast

Advertisements
Track Severe Weather on mobile